sensor_id;sensor_type;location;lat;lon;timestamp;P1;durP1;ratioP1;P2;durP2;ratioP2
9398;SDS011;4739;49.334;8.792;2022-09-16T00:00:14;3.97;;;2.80;;
9398;SDS011;4739;49.334;8.792;2022-09-16T00:02:39;3.13;;;2.80;;
9398;SDS011;4739;49.334;8.792;2022-09-16T00:05:06;6.23;;;2.50;;
9398;SDS011;4739;49.334;8.792;2022-09-16T00:07:32;4.57;;;2.73;;
9398;SDS011;4739;49.334;8.792;2022-09-16T00:09:57;4.10;;;3.03;;
9398;SDS011;4739;49.334;8.792;2022-09-16T00:12:23;4.50;;;2.80;;
9398;SDS011;4739;49.334;8.792;2022-09-16T00:14:50;2.70;;;2.43;;
9398;SDS011;4739;49.334;8.792;2022-09-16T00:17:17;3.37;;;2.53;;
9398;SDS011;4739;49.334;8.792;2022-09-16T00:19:43;4.50;;;2.57;;
9398;SDS011;4739;49.334;8.792;2022-09-16T00:22:08;6.30;;;2.23;;
9398;SDS011;4739;49.334;8.792;2022-09-16T00:24:34;4.23;;;2.90;;
9398;SDS011;4739;49.334;8.792;2022-09-16T00:26:59;5.60;;;2.70;;
9398;SDS011;4739;49.334;8.792;2022-09-16T00:29:25;6.20;;;2.70;;
9398;SDS011;4739;49.334;8.792;2022-09-16T00:31:51;5.40;;;3.00;;
9398;SDS011;4739;49.334;8.792;2022-09-16T00:34:16;3.27;;;2.13;;
9398;SDS011;4739;49.334;8.792;2022-09-16T00:36:42;6.43;;;2.70;;
9398;SDS011;4739;49.334;8.792;2022-09-16T00:39:08;4.53;;;2.27;;
9398;SDS011;4739;49.334;8.792;2022-09-16T00:41:33;5.20;;;2.30;;
9398;SDS011;4739;49.334;8.792;2022-09-16T00:44:05;2.57;;;2.20;;
9398;SDS011;4739;49.334;8.792;2022-09-16T00:46:51;4.27;;;2.03;;
9398;SDS011;4739;49.334;8.792;2022-09-16T00:49:26;3.37;;;2.33;;
9398;SDS011;4739;49.334;8.792;2022-09-16T00:52:01;5.37;;;1.93;;
9398;SDS011;4739;49.334;8.792;2022-09-16T00:54:29;5.67;;;2.27;;
9398;SDS011;4739;49.334;8.792;2022-09-16T00:56:56;5.10;;;1.93;;
9398;SDS011;4739;49.334;8.792;2022-09-16T00:59:37;3.83;;;1.90;;
9398;SDS011;4739;49.334;8.792;2022-09-16T01:02:07;4.53;;;1.80;;
9398;SDS011;4739;49.334;8.792;2022-09-16T01:04:45;5.40;;;2.03;;
9398;SDS011;4739;49.334;8.792;2022-09-16T01:07:16;4.43;;;1.90;;
9398;SDS011;4739;49.334;8.792;2022-09-16T01:09:47;1.93;;;1.60;;
9398;SDS011;4739;49.334;8.792;2022-09-16T01:12:13;2.13;;;1.90;;
9398;SDS011;4739;49.334;8.792;2022-09-16T01:14:39;2.67;;;1.50;;
9398;SDS011;4739;49.334;8.792;2022-09-16T01:17:26;4.57;;;1.70;;
9398;SDS011;4739;49.334;8.792;2022-09-16T01:31:52;3.97;;;1.87;;
9398;SDS011;4739;49.334;8.792;2022-09-16T01:40:31;9.10;;;1.97;;
9398;SDS011;4739;49.334;8.792;2022-09-16T01:45:55;9.70;;;2.60;;
9398;SDS011;4739;49.334;8.792;2022-09-16T01:48:40;5.50;;;2.17;;
9398;SDS011;4739;49.334;8.792;2022-09-16T01:53:53;4.13;;;1.90;;
9398;SDS011;4739;49.334;8.792;2022-09-16T01:56:59;4.80;;;1.97;;
9398;SDS011;4739;49.334;8.792;2022-09-16T01:59:35;6.37;;;2.10;;
9398;SDS011;4739;49.334;8.792;2022-09-16T02:02:15;3.30;;;2.20;;
9398;SDS011;4739;49.334;8.792;2022-09-16T02:04:47;3.00;;;2.30;;
9398;SDS011;4739;49.334;8.792;2022-09-16T02:07:16;4.63;;;1.97;;
9398;SDS011;4739;49.334;8.792;2022-09-16T02:09:45;9.90;;;2.53;;
9398;SDS011;4739;49.334;8.792;2022-09-16T02:12:21;3.77;;;1.90;;
9398;SDS011;4739;49.334;8.792;2022-09-16T02:14:56;5.43;;;2.03;;
9398;SDS011;4739;49.334;8.792;2022-09-16T02:17:25;2.70;;;1.97;;
9398;SDS011;4739;49.334;8.792;2022-09-16T02:20:04;3.30;;;2.00;;
9398;SDS011;4739;49.334;8.792;2022-09-16T02:22:39;7.70;;;2.80;;
9398;SDS011;4739;49.334;8.792;2022-09-16T02:25:08;7.67;;;3.43;;
9398;SDS011;4739;49.334;8.792;2022-09-16T02:27:35;3.43;;;2.47;;
9398;SDS011;4739;49.334;8.792;2022-09-16T02:30:07;6.00;;;2.70;;
9398;SDS011;4739;49.334;8.792;2022-09-16T02:32:36;6.83;;;2.60;;
9398;SDS011;4739;49.334;8.792;2022-09-16T02:35:08;6.50;;;3.00;;
9398;SDS011;4739;49.334;8.792;2022-09-16T02:37:38;6.03;;;3.07;;
9398;SDS011;4739;49.334;8.792;2022-09-16T02:40:30;5.83;;;2.53;;
9398;SDS011;4739;49.334;8.792;2022-09-16T02:42:59;6.57;;;2.50;;
9398;SDS011;4739;49.334;8.792;2022-09-16T02:45:32;6.70;;;2.63;;
9398;SDS011;4739;49.334;8.792;2022-09-16T02:51:22;4.57;;;2.30;;
9398;SDS011;4739;49.334;8.792;2022-09-16T02:54:11;5.80;;;2.70;;
9398;SDS011;4739;49.334;8.792;2022-09-16T02:56:53;6.47;;;2.80;;
9398;SDS011;4739;49.334;8.792;2022-09-16T02:59:20;5.77;;;2.77;;
9398;SDS011;4739;49.334;8.792;2022-09-16T03:01:46;6.40;;;2.43;;
9398;SDS011;4739;49.334;8.792;2022-09-16T03:04:13;6.03;;;2.97;;
9398;SDS011;4739;49.334;8.792;2022-09-16T03:06:41;7.93;;;2.67;;
9398;SDS011;4739;49.334;8.792;2022-09-16T03:09:08;4.67;;;2.30;;
9398;SDS011;4739;49.334;8.792;2022-09-16T03:20:37;5.83;;;2.70;;
9398;SDS011;4739;49.334;8.792;2022-09-16T03:28:58;5.80;;;2.40;;
9398;SDS011;4739;49.334;8.792;2022-09-16T03:31:27;4.13;;;2.20;;
9398;SDS011;4739;49.334;8.792;2022-09-16T03:36:31;6.13;;;2.50;;
9398;SDS011;4739;49.334;8.792;2022-09-16T03:39:00;5.63;;;2.00;;
9398;SDS011;4739;49.334;8.792;2022-09-16T03:41:28;5.30;;;2.00;;
9398;SDS011;4739;49.334;8.792;2022-09-16T03:43:56;6.13;;;2.40;;
9398;SDS011;4739;49.334;8.792;2022-09-16T03:46:23;6.20;;;2.40;;
9398;SDS011;4739;49.334;8.792;2022-09-16T03:48:50;4.27;;;2.20;;
9398;SDS011;4739;49.334;8.792;2022-09-16T03:51:16;4.47;;;2.30;;
9398;SDS011;4739;49.334;8.792;2022-09-16T03:53:42;5.87;;;2.17;;
9398;SDS011;4739;49.334;8.792;2022-09-16T03:56:07;4.53;;;2.40;;
9398;SDS011;4739;49.334;8.792;2022-09-16T03:58:33;3.63;;;2.23;;
9398;SDS011;4739;49.334;8.792;2022-09-16T04:00:59;5.17;;;2.10;;
9398;SDS011;4739;49.334;8.792;2022-09-16T04:03:24;5.67;;;2.53;;
9398;SDS011;4739;49.334;8.792;2022-09-16T04:05:53;4.83;;;2.40;;
9398;SDS011;4739;49.334;8.792;2022-09-16T04:08:20;5.03;;;2.73;;
9398;SDS011;4739;49.334;8.792;2022-09-16T04:10:53;3.63;;;2.13;;
9398;SDS011;4739;49.334;8.792;2022-09-16T04:13:22;5.37;;;2.50;;
9398;SDS011;4739;49.334;8.792;2022-09-16T04:15:48;6.80;;;2.70;;
9398;SDS011;4739;49.334;8.792;2022-09-16T04:18:14;4.27;;;2.50;;
9398;SDS011;4739;49.334;8.792;2022-09-16T04:20:40;4.90;;;2.47;;
9398;SDS011;4739;49.334;8.792;2022-09-16T04:23:06;6.37;;;2.47;;
9398;SDS011;4739;49.334;8.792;2022-09-16T04:25:32;4.07;;;2.20;;
9398;SDS011;4739;49.334;8.792;2022-09-16T04:27:57;7.07;;;2.67;;
9398;SDS011;4739;49.334;8.792;2022-09-16T04:30:23;6.73;;;2.63;;
9398;SDS011;4739;49.334;8.792;2022-09-16T04:32:52;5.23;;;2.80;;
9398;SDS011;4739;49.334;8.792;2022-09-16T04:35:18;4.93;;;2.30;;
9398;SDS011;4739;49.334;8.792;2022-09-16T04:37:44;8.23;;;2.37;;
9398;SDS011;4739;49.334;8.792;2022-09-16T04:40:10;3.40;;;2.43;;
9398;SDS011;4739;49.334;8.792;2022-09-16T04:42:36;4.50;;;2.90;;
9398;SDS011;4739;49.334;8.792;2022-09-16T04:45:02;6.87;;;2.90;;
9398;SDS011;4739;49.334;8.792;2022-09-16T04:47:27;5.03;;;2.80;;
9398;SDS011;4739;49.334;8.792;2022-09-16T04:49:53;4.27;;;2.90;;
9398;SDS011;4739;49.334;8.792;2022-09-16T04:52:19;6.67;;;2.87;;
9398;SDS011;4739;49.334;8.792;2022-09-16T04:54:44;4.70;;;2.90;;
9398;SDS011;4739;49.334;8.792;2022-09-16T04:57:10;7.53;;;2.67;;
9398;SDS011;4739;49.334;8.792;2022-09-16T04:59:35;3.47;;;3.17;;
9398;SDS011;4739;49.334;8.792;2022-09-16T05:02:01;6.53;;;3.03;;
9398;SDS011;4739;49.334;8.792;2022-09-16T05:04:27;8.53;;;3.70;;
9398;SDS011;4739;49.334;8.792;2022-09-16T05:06:52;5.20;;;2.93;;
9398;SDS011;4739;49.334;8.792;2022-09-16T05:09:18;4.03;;;2.80;;
9398;SDS011;4739;49.334;8.792;2022-09-16T05:11:46;5.83;;;3.10;;
9398;SDS011;4739;49.334;8.792;2022-09-16T05:14:13;5.60;;;3.30;;
9398;SDS011;4739;49.334;8.792;2022-09-16T05:16:40;5.93;;;3.40;;
9398;SDS011;4739;49.334;8.792;2022-09-16T05:19:06;7.03;;;3.17;;
9398;SDS011;4739;49.334;8.792;2022-09-16T05:21:33;8.70;;;3.63;;
9398;SDS011;4739;49.334;8.792;2022-09-16T05:24:01;5.30;;;3.37;;
9398;SDS011;4739;49.334;8.792;2022-09-16T05:26:29;8.83;;;3.37;;
9398;SDS011;4739;49.334;8.792;2022-09-16T05:28:58;8.77;;;3.37;;
9398;SDS011;4739;49.334;8.792;2022-09-16T05:31:27;6.73;;;3.57;;
9398;SDS011;4739;49.334;8.792;2022-09-16T05:33:55;5.73;;;3.30;;
9398;SDS011;4739;49.334;8.792;2022-09-16T05:36:22;8.43;;;3.27;;
9398;SDS011;4739;49.334;8.792;2022-09-16T05:38:48;6.63;;;3.00;;
9398;SDS011;4739;49.334;8.792;2022-09-16T05:41:14;8.33;;;3.10;;
9398;SDS011;4739;49.334;8.792;2022-09-16T05:43:40;6.13;;;2.93;;
9398;SDS011;4739;49.334;8.792;2022-09-16T05:48:37;3.83;;;2.97;;
9398;SDS011;4739;49.334;8.792;2022-09-16T05:51:04;5.70;;;3.00;;
9398;SDS011;4739;49.334;8.792;2022-09-16T05:53:31;4.93;;;3.30;;
9398;SDS011;4739;49.334;8.792;2022-09-16T05:58:23;6.43;;;4.00;;
9398;SDS011;4739;49.334;8.792;2022-09-16T06:00:49;5.10;;;3.93;;
9398;SDS011;4739;49.334;8.792;2022-09-16T06:03:15;7.63;;;3.50;;
9398;SDS011;4739;49.334;8.792;2022-09-16T06:05:41;7.30;;;3.70;;
9398;SDS011;4739;49.334;8.792;2022-09-16T06:08:07;6.87;;;3.83;;
9398;SDS011;4739;49.334;8.792;2022-09-16T06:10:39;6.73;;;4.70;;
9398;SDS011;4739;49.334;8.792;2022-09-16T06:13:05;11.90;;;5.20;;
9398;SDS011;4739;49.334;8.792;2022-09-16T06:15:31;11.00;;;4.97;;
9398;SDS011;4739;49.334;8.792;2022-09-16T06:17:57;8.10;;;4.80;;
9398;SDS011;4739;49.334;8.792;2022-09-16T06:20:22;7.13;;;4.40;;
9398;SDS011;4739;49.334;8.792;2022-09-16T06:22:48;5.97;;;4.63;;
9398;SDS011;4739;49.334;8.792;2022-09-16T06:25:14;5.60;;;4.13;;
9398;SDS011;4739;49.334;8.792;2022-09-16T06:27:40;7.10;;;4.57;;
9398;SDS011;4739;49.334;8.792;2022-09-16T06:30:06;6.27;;;4.53;;
9398;SDS011;4739;49.334;8.792;2022-09-16T06:32:31;5.90;;;3.87;;
9398;SDS011;4739;49.334;8.792;2022-09-16T06:34:57;7.03;;;4.37;;
9398;SDS011;4739;49.334;8.792;2022-09-16T06:37:23;6.47;;;3.93;;
9398;SDS011;4739;49.334;8.792;2022-09-16T06:39:50;6.47;;;3.80;;
9398;SDS011;4739;49.334;8.792;2022-09-16T06:42:15;5.77;;;3.60;;
9398;SDS011;4739;49.334;8.792;2022-09-16T06:44:41;8.73;;;4.20;;
9398;SDS011;4739;49.334;8.792;2022-09-16T06:47:06;6.97;;;4.93;;
9398;SDS011;4739;49.334;8.792;2022-09-16T06:49:32;5.80;;;4.87;;
9398;SDS011;4739;49.334;8.792;2022-09-16T06:51:57;6.50;;;5.20;;
9398;SDS011;4739;49.334;8.792;2022-09-16T06:54:23;9.33;;;5.67;;
9398;SDS011;4739;49.334;8.792;2022-09-16T06:56:49;8.40;;;4.70;;
9398;SDS011;4739;49.334;8.792;2022-09-16T06:59:14;4.83;;;4.43;;
9398;SDS011;4739;49.334;8.792;2022-09-16T07:01:40;5.93;;;4.33;;
9398;SDS011;4739;49.334;8.792;2022-09-16T07:04:07;6.13;;;4.27;;
9398;SDS011;4739;49.334;8.792;2022-09-16T07:06:37;7.00;;;4.33;;
9398;SDS011;4739;49.334;8.792;2022-09-16T07:09:03;6.07;;;4.20;;
9398;SDS011;4739;49.334;8.792;2022-09-16T07:11:29;7.43;;;4.13;;
9398;SDS011;4739;49.334;8.792;2022-09-16T07:13:55;7.43;;;4.30;;
9398;SDS011;4739;49.334;8.792;2022-09-16T07:16:23;8.20;;;4.30;;
9398;SDS011;4739;49.334;8.792;2022-09-16T07:18:53;5.37;;;3.73;;
9398;SDS011;4739;49.334;8.792;2022-09-16T07:21:20;8.43;;;4.50;;
9398;SDS011;4739;49.334;8.792;2022-09-16T07:23:48;8.77;;;4.43;;
9398;SDS011;4739;49.334;8.792;2022-09-16T07:26:15;5.90;;;4.30;;
9398;SDS011;4739;49.334;8.792;2022-09-16T07:28:43;7.20;;;4.70;;
9398;SDS011;4739;49.334;8.792;2022-09-16T07:31:15;6.33;;;4.13;;
9398;SDS011;4739;49.334;8.792;2022-09-16T07:33:43;6.73;;;3.93;;
9398;SDS011;4739;49.334;8.792;2022-09-16T07:36:12;6.73;;;4.57;;
9398;SDS011;4739;49.334;8.792;2022-09-16T07:38:40;5.00;;;3.70;;
9398;SDS011;4739;49.334;8.792;2022-09-16T07:41:07;6.23;;;4.07;;
9398;SDS011;4739;49.334;8.792;2022-09-16T07:43:33;6.73;;;3.70;;
9398;SDS011;4739;49.334;8.792;2022-09-16T07:48:24;5.70;;;3.77;;
9398;SDS011;4739;49.334;8.792;2022-09-16T07:50:54;7.27;;;3.93;;
9398;SDS011;4739;49.334;8.792;2022-09-16T07:53:24;7.57;;;3.70;;
9398;SDS011;4739;49.334;8.792;2022-09-16T07:55:51;5.57;;;4.13;;
9398;SDS011;4739;49.334;8.792;2022-09-16T07:58:17;5.13;;;3.73;;
9398;SDS011;4739;49.334;8.792;2022-09-16T08:00:43;7.07;;;3.70;;
9398;SDS011;4739;49.334;8.792;2022-09-16T08:03:10;5.47;;;4.03;;
9398;SDS011;4739;49.334;8.792;2022-09-16T08:05:35;8.50;;;4.13;;
9398;SDS011;4739;49.334;8.792;2022-09-16T08:08:01;10.43;;;4.60;;
9398;SDS011;4739;49.334;8.792;2022-09-16T08:10:27;6.43;;;4.67;;
9398;SDS011;4739;49.334;8.792;2022-09-16T08:12:52;5.87;;;4.50;;
9398;SDS011;4739;49.334;8.792;2022-09-16T08:15:18;8.63;;;4.27;;
9398;SDS011;4739;49.334;8.792;2022-09-16T08:17:43;7.87;;;4.47;;
9398;SDS011;4739;49.334;8.792;2022-09-16T08:20:09;6.03;;;4.40;;
9398;SDS011;4739;49.334;8.792;2022-09-16T08:22:35;5.30;;;3.90;;
9398;SDS011;4739;49.334;8.792;2022-09-16T08:25:01;6.83;;;4.30;;
9398;SDS011;4739;49.334;8.792;2022-09-16T08:27:27;7.50;;;4.10;;
9398;SDS011;4739;49.334;8.792;2022-09-16T08:29:52;6.40;;;3.63;;
9398;SDS011;4739;49.334;8.792;2022-09-16T08:32:18;5.27;;;3.83;;
9398;SDS011;4739;49.334;8.792;2022-09-16T08:34:43;4.40;;;3.77;;
9398;SDS011;4739;49.334;8.792;2022-09-16T08:37:09;6.40;;;4.13;;
9398;SDS011;4739;49.334;8.792;2022-09-16T08:39:35;7.13;;;4.37;;
9398;SDS011;4739;49.334;8.792;2022-09-16T08:42:04;6.10;;;4.33;;
9398;SDS011;4739;49.334;8.792;2022-09-16T08:47:18;6.67;;;4.50;;
9398;SDS011;4739;49.334;8.792;2022-09-16T08:49:52;5.13;;;3.70;;
9398;SDS011;4739;49.334;8.792;2022-09-16T08:52:29;4.80;;;4.30;;
9398;SDS011;4739;49.334;8.792;2022-09-16T08:55:01;4.17;;;3.77;;
9398;SDS011;4739;49.334;8.792;2022-09-16T08:57:32;7.37;;;4.07;;
9398;SDS011;4739;49.334;8.792;2022-09-16T09:00:04;7.67;;;3.97;;
9398;SDS011;4739;49.334;8.792;2022-09-16T09:17:12;4.73;;;2.93;;
9398;SDS011;4739;49.334;8.792;2022-09-16T09:30:33;4.33;;;2.33;;
9398;SDS011;4739;49.334;8.792;2022-09-16T09:33:03;5.20;;;2.17;;
9398;SDS011;4739;49.334;8.792;2022-09-16T09:41:15;4.40;;;2.60;;
9398;SDS011;4739;49.334;8.792;2022-09-16T09:44:05;4.07;;;2.10;;
9398;SDS011;4739;49.334;8.792;2022-09-16T09:46:53;5.60;;;1.97;;
9398;SDS011;4739;49.334;8.792;2022-09-16T09:49:27;3.00;;;1.73;;
9398;SDS011;4739;49.334;8.792;2022-09-16T09:52:01;5.87;;;1.77;;
9398;SDS011;4739;49.334;8.792;2022-09-16T09:54:39;2.20;;;1.63;;
9398;SDS011;4739;49.334;8.792;2022-09-16T09:57:20;2.97;;;1.40;;
9398;SDS011;4739;49.334;8.792;2022-09-16T10:02:33;4.30;;;1.80;;
9398;SDS011;4739;49.334;8.792;2022-09-16T10:05:01;4.40;;;1.53;;
9398;SDS011;4739;49.334;8.792;2022-09-16T10:07:27;2.93;;;1.70;;
9398;SDS011;4739;49.334;8.792;2022-09-16T10:09:54;3.20;;;1.13;;
9398;SDS011;4739;49.334;8.792;2022-09-16T10:12:29;1.97;;;1.10;;
9398;SDS011;4739;49.334;8.792;2022-09-16T10:14:57;3.03;;;1.23;;
9398;SDS011;4739;49.334;8.792;2022-09-16T10:17:24;2.57;;;1.27;;
9398;SDS011;4739;49.334;8.792;2022-09-16T10:19:58;2.90;;;1.00;;
9398;SDS011;4739;49.334;8.792;2022-09-16T10:22:32;2.40;;;0.90;;
9398;SDS011;4739;49.334;8.792;2022-09-16T10:24:59;4.63;;;1.40;;
9398;SDS011;4739;49.334;8.792;2022-09-16T10:27:27;3.97;;;1.50;;
9398;SDS011;4739;49.334;8.792;2022-09-16T10:30:07;4.40;;;1.30;;
9398;SDS011;4739;49.334;8.792;2022-09-16T10:32:45;1.97;;;1.30;;
9398;SDS011;4739;49.334;8.792;2022-09-16T10:35:19;3.97;;;1.67;;
9398;SDS011;4739;49.334;8.792;2022-09-16T10:37:47;3.40;;;1.40;;
9398;SDS011;4739;49.334;8.792;2022-09-16T10:40:15;5.90;;;1.50;;
9398;SDS011;4739;49.334;8.792;2022-09-16T10:42:45;3.63;;;1.10;;
9398;SDS011;4739;49.334;8.792;2022-09-16T10:45:17;3.57;;;1.27;;
9398;SDS011;4739;49.334;8.792;2022-09-16T10:47:48;4.17;;;1.03;;
9398;SDS011;4739;49.334;8.792;2022-09-16T10:50:15;3.33;;;1.50;;
9398;SDS011;4739;49.334;8.792;2022-09-16T10:52:43;5.33;;;1.33;;
9398;SDS011;4739;49.334;8.792;2022-09-16T10:55:30;2.07;;;1.20;;
9398;SDS011;4739;49.334;8.792;2022-09-16T10:58:16;2.77;;;1.27;;
9398;SDS011;4739;49.334;8.792;2022-09-16T11:00:58;4.87;;;1.17;;
9398;SDS011;4739;49.334;8.792;2022-09-16T11:06:38;2.37;;;0.80;;
9398;SDS011;4739;49.334;8.792;2022-09-16T11:11:46;2.40;;;0.70;;
9398;SDS011;4739;49.334;8.792;2022-09-16T11:19:51;1.30;;;0.80;;
9398;SDS011;4739;49.334;8.792;2022-09-16T11:38:05;3.03;;;1.00;;
9398;SDS011;4739;49.334;8.792;2022-09-16T11:40:55;1.23;;;0.70;;
9398;SDS011;4739;49.334;8.792;2022-09-16T11:56:01;2.33;;;1.07;;
9398;SDS011;4739;49.334;8.792;2022-09-16T11:58:38;1.67;;;0.60;;
9398;SDS011;4739;49.334;8.792;2022-09-16T12:01:14;2.67;;;1.00;;
9398;SDS011;4739;49.334;8.792;2022-09-16T12:03:47;3.17;;;1.10;;
9398;SDS011;4739;49.334;8.792;2022-09-16T12:06:15;1.93;;;0.73;;
9398;SDS011;4739;49.334;8.792;2022-09-16T12:11:18;3.67;;;0.93;;
9398;SDS011;4739;49.334;8.792;2022-09-16T12:13:54;2.57;;;0.80;;
9398;SDS011;4739;49.334;8.792;2022-09-16T12:16:35;2.97;;;0.90;;
9398;SDS011;4739;49.334;8.792;2022-09-16T12:19:04;3.13;;;0.80;;
9398;SDS011;4739;49.334;8.792;2022-09-16T12:21:36;2.87;;;0.90;;
9398;SDS011;4739;49.334;8.792;2022-09-16T12:24:08;1.53;;;0.90;;
9398;SDS011;4739;49.334;8.792;2022-09-16T12:26:37;1.77;;;0.80;;
9398;SDS011;4739;49.334;8.792;2022-09-16T12:29:18;5.90;;;1.10;;
9398;SDS011;4739;49.334;8.792;2022-09-16T12:31:53;2.53;;;0.90;;
9398;SDS011;4739;49.334;8.792;2022-09-16T12:34:32;3.07;;;1.07;;
9398;SDS011;4739;49.334;8.792;2022-09-16T12:39:43;5.20;;;0.90;;
9398;SDS011;4739;49.334;8.792;2022-09-16T12:52:22;2.20;;;0.80;;
9398;SDS011;4739;49.334;8.792;2022-09-16T13:00:20;7.37;;;1.10;;
9398;SDS011;4739;49.334;8.792;2022-09-16T13:02:50;3.70;;;1.23;;
9398;SDS011;4739;49.334;8.792;2022-09-16T13:05:19;5.07;;;1.00;;
9398;SDS011;4739;49.334;8.792;2022-09-16T13:07:50;1.40;;;0.93;;
9398;SDS011;4739;49.334;8.792;2022-09-16T13:10:18;1.33;;;0.80;;
9398;SDS011;4739;49.334;8.792;2022-09-16T13:12:55;2.90;;;0.90;;
9398;SDS011;4739;49.334;8.792;2022-09-16T13:15:31;1.13;;;0.70;;
9398;SDS011;4739;49.334;8.792;2022-09-16T13:20:39;3.27;;;0.90;;
9398;SDS011;4739;49.334;8.792;2022-09-16T13:23:07;3.50;;;1.00;;
9398;SDS011;4739;49.334;8.792;2022-09-16T13:28:38;1.23;;;0.70;;
9398;SDS011;4739;49.334;8.792;2022-09-16T13:33:42;2.77;;;0.90;;
9398;SDS011;4739;49.334;8.792;2022-09-16T13:38:50;2.90;;;0.80;;
9398;SDS011;4739;49.334;8.792;2022-09-16T13:44:47;1.53;;;0.80;;
9398;SDS011;4739;49.334;8.792;2022-09-16T13:46:48;1.30;;;0.80;;
9398;SDS011;4739;49.334;8.792;2022-09-16T13:49:18;2.87;;;1.10;;
9398;SDS011;4739;49.334;8.792;2022-09-16T13:51:46;2.00;;;1.00;;
9398;SDS011;4739;49.334;8.792;2022-09-16T13:54:24;2.40;;;1.00;;
9398;SDS011;4739;49.334;8.792;2022-09-16T13:59:51;1.83;;;0.83;;
9398;SDS011;4739;49.334;8.792;2022-09-16T14:02:31;2.90;;;0.97;;
9398;SDS011;4739;49.334;8.792;2022-09-16T14:13:05;2.80;;;1.17;;
9398;SDS011;4739;49.334;8.792;2022-09-16T14:15:42;1.07;;;0.80;;
9398;SDS011;4739;49.334;8.792;2022-09-16T14:18:11;2.00;;;1.03;;
9398;SDS011;4739;49.334;8.792;2022-09-16T14:20:37;1.93;;;0.77;;
9398;SDS011;4739;49.334;8.792;2022-09-16T14:23:09;2.43;;;0.90;;
9398;SDS011;4739;49.334;8.792;2022-09-16T14:25:37;3.07;;;0.70;;
9398;SDS011;4739;49.334;8.792;2022-09-16T14:30:33;2.97;;;0.87;;
9398;SDS011;4739;49.334;8.792;2022-09-16T14:33:00;3.77;;;0.80;;
9398;SDS011;4739;49.334;8.792;2022-09-16T14:35:27;1.30;;;0.70;;
9398;SDS011;4739;49.334;8.792;2022-09-16T14:37:54;3.17;;;0.70;;
9398;SDS011;4739;49.334;8.792;2022-09-16T14:40:21;1.80;;;1.00;;
9398;SDS011;4739;49.334;8.792;2022-09-16T14:42:50;1.20;;;0.80;;
9398;SDS011;4739;49.334;8.792;2022-09-16T14:45:17;1.60;;;0.70;;
9398;SDS011;4739;49.334;8.792;2022-09-16T14:47:43;1.57;;;0.67;;
9398;SDS011;4739;49.334;8.792;2022-09-16T14:50:11;1.37;;;0.80;;
9398;SDS011;4739;49.334;8.792;2022-09-16T14:52:38;2.23;;;0.60;;
9398;SDS011;4739;49.334;8.792;2022-09-16T14:55:24;1.30;;;0.70;;
9398;SDS011;4739;49.334;8.792;2022-09-16T14:57:50;2.70;;;0.90;;
9398;SDS011;4739;49.334;8.792;2022-09-16T15:00:16;2.20;;;1.03;;
9398;SDS011;4739;49.334;8.792;2022-09-16T15:02:51;5.60;;;3.60;;
9398;SDS011;4739;49.334;8.792;2022-09-16T15:05:23;2.77;;;1.70;;
9398;SDS011;4739;49.334;8.792;2022-09-16T15:07:52;1.77;;;1.03;;
9398;SDS011;4739;49.334;8.792;2022-09-16T15:10:26;1.50;;;0.90;;
9398;SDS011;4739;49.334;8.792;2022-09-16T15:15:20;1.93;;;1.07;;
9398;SDS011;4739;49.334;8.792;2022-09-16T15:18:02;1.17;;;0.80;;
9398;SDS011;4739;49.334;8.792;2022-09-16T15:20:30;1.33;;;0.83;;
9398;SDS011;4739;49.334;8.792;2022-09-16T15:22:57;2.00;;;1.00;;
9398;SDS011;4739;49.334;8.792;2022-09-16T15:25:25;1.50;;;0.97;;
9398;SDS011;4739;49.334;8.792;2022-09-16T15:28:14;3.40;;;1.00;;
9398;SDS011;4739;49.334;8.792;2022-09-16T15:30:51;1.70;;;0.73;;
9398;SDS011;4739;49.334;8.792;2022-09-16T15:33:31;2.57;;;1.03;;
9398;SDS011;4739;49.334;8.792;2022-09-16T15:35:57;1.67;;;0.50;;
9398;SDS011;4739;49.334;8.792;2022-09-16T15:38:24;1.30;;;0.70;;
9398;SDS011;4739;49.334;8.792;2022-09-16T15:41:03;1.00;;;0.47;;
9398;SDS011;4739;49.334;8.792;2022-09-16T15:43:33;1.50;;;0.43;;
9398;SDS011;4739;49.334;8.792;2022-09-16T15:48:28;1.43;;;0.50;;
9398;SDS011;4739;49.334;8.792;2022-09-16T15:51:00;0.77;;;0.60;;
9398;SDS011;4739;49.334;8.792;2022-09-16T16:03:57;1.37;;;0.47;;
9398;SDS011;4739;49.334;8.792;2022-09-16T16:09:26;1.30;;;0.67;;
9398;SDS011;4739;49.334;8.792;2022-09-16T16:11:57;0.77;;;0.43;;
9398;SDS011;4739;49.334;8.792;2022-09-16T16:14:23;2.03;;;0.80;;
9398;SDS011;4739;49.334;8.792;2022-09-16T16:16:51;1.83;;;0.70;;
9398;SDS011;4739;49.334;8.792;2022-09-16T16:19:17;2.20;;;0.80;;
9398;SDS011;4739;49.334;8.792;2022-09-16T16:21:44;1.93;;;0.67;;
9398;SDS011;4739;49.334;8.792;2022-09-16T16:24:13;1.10;;;0.60;;
9398;SDS011;4739;49.334;8.792;2022-09-16T16:26:39;1.50;;;0.70;;
9398;SDS011;4739;49.334;8.792;2022-09-16T16:29:05;0.70;;;0.70;;
9398;SDS011;4739;49.334;8.792;2022-09-16T16:31:32;1.60;;;0.90;;
9398;SDS011;4739;49.334;8.792;2022-09-16T16:33:59;1.30;;;0.80;;
9398;SDS011;4739;49.334;8.792;2022-09-16T16:36:25;0.90;;;0.70;;
9398;SDS011;4739;49.334;8.792;2022-09-16T16:38:51;2.10;;;0.70;;
9398;SDS011;4739;49.334;8.792;2022-09-16T16:41:20;1.63;;;0.90;;
9398;SDS011;4739;49.334;8.792;2022-09-16T16:43:47;2.37;;;1.00;;
9398;SDS011;4739;49.334;8.792;2022-09-16T16:46:13;1.17;;;0.83;;
9398;SDS011;4739;49.334;8.792;2022-09-16T16:48:39;1.37;;;0.80;;
9398;SDS011;4739;49.334;8.792;2022-09-16T16:51:05;1.77;;;1.10;;
9398;SDS011;4739;49.334;8.792;2022-09-16T16:53:32;2.63;;;0.90;;
9398;SDS011;4739;49.334;8.792;2022-09-16T16:56:02;4.07;;;0.90;;
9398;SDS011;4739;49.334;8.792;2022-09-16T16:58:32;1.80;;;1.70;;
9398;SDS011;4739;49.334;8.792;2022-09-16T17:03:33;2.53;;;1.17;;
9398;SDS011;4739;49.334;8.792;2022-09-16T17:05:59;2.83;;;1.20;;
9398;SDS011;4739;49.334;8.792;2022-09-16T17:08:25;2.30;;;1.07;;
9398;SDS011;4739;49.334;8.792;2022-09-16T17:11:07;1.43;;;0.90;;
9398;SDS011;4739;49.334;8.792;2022-09-16T17:13:34;2.33;;;0.90;;
9398;SDS011;4739;49.334;8.792;2022-09-16T17:16:00;1.43;;;0.60;;
9398;SDS011;4739;49.334;8.792;2022-09-16T17:18:26;1.50;;;0.70;;
9398;SDS011;4739;49.334;8.792;2022-09-16T17:20:52;0.87;;;0.77;;
9398;SDS011;4739;49.334;8.792;2022-09-16T17:23:18;1.30;;;0.80;;
9398;SDS011;4739;49.334;8.792;2022-09-16T17:25:48;1.40;;;0.80;;
9398;SDS011;4739;49.334;8.792;2022-09-16T17:28:15;1.00;;;0.77;;
9398;SDS011;4739;49.334;8.792;2022-09-16T17:30:42;1.50;;;0.80;;
9398;SDS011;4739;49.334;8.792;2022-09-16T17:33:08;1.73;;;0.70;;
9398;SDS011;4739;49.334;8.792;2022-09-16T17:35:34;2.73;;;0.90;;
9398;SDS011;4739;49.334;8.792;2022-09-16T17:38:00;1.10;;;0.60;;
9398;SDS011;4739;49.334;8.792;2022-09-16T17:40:28;0.73;;;0.57;;
9398;SDS011;4739;49.334;8.792;2022-09-16T17:42:54;0.70;;;0.63;;
9398;SDS011;4739;49.334;8.792;2022-09-16T17:45:20;1.90;;;0.70;;
9398;SDS011;4739;49.334;8.792;2022-09-16T17:47:46;2.63;;;0.90;;
9398;SDS011;4739;49.334;8.792;2022-09-16T17:50:11;1.73;;;0.80;;
9398;SDS011;4739;49.334;8.792;2022-09-16T17:52:38;1.10;;;0.80;;
9398;SDS011;4739;49.334;8.792;2022-09-16T17:55:04;0.80;;;0.63;;
9398;SDS011;4739;49.334;8.792;2022-09-16T17:57:30;0.93;;;0.50;;
9398;SDS011;4739;49.334;8.792;2022-09-16T17:59:57;1.77;;;0.67;;
9398;SDS011;4739;49.334;8.792;2022-09-16T18:02:23;0.70;;;0.70;;
9398;SDS011;4739;49.334;8.792;2022-09-16T18:04:49;0.73;;;0.60;;
9398;SDS011;4739;49.334;8.792;2022-09-16T18:07:16;0.93;;;0.50;;
9398;SDS011;4739;49.334;8.792;2022-09-16T18:09:42;1.33;;;0.87;;
9398;SDS011;4739;49.334;8.792;2022-09-16T18:12:08;0.77;;;0.57;;
9398;SDS011;4739;49.334;8.792;2022-09-16T18:14:34;1.40;;;0.60;;
9398;SDS011;4739;49.334;8.792;2022-09-16T18:17:00;1.00;;;0.77;;
9398;SDS011;4739;49.334;8.792;2022-09-16T18:19:26;0.83;;;0.50;;
9398;SDS011;4739;49.334;8.792;2022-09-16T18:21:52;2.23;;;0.60;;
9398;SDS011;4739;49.334;8.792;2022-09-16T18:24:18;1.43;;;0.60;;
9398;SDS011;4739;49.334;8.792;2022-09-16T18:26:44;1.00;;;0.60;;
9398;SDS011;4739;49.334;8.792;2022-09-16T18:29:11;1.47;;;0.60;;
9398;SDS011;4739;49.334;8.792;2022-09-16T18:31:38;1.00;;;0.87;;
9398;SDS011;4739;49.334;8.792;2022-09-16T18:34:04;1.13;;;1.03;;
9398;SDS011;4739;49.334;8.792;2022-09-16T18:36:30;0.60;;;0.60;;
9398;SDS011;4739;49.334;8.792;2022-09-16T18:38:59;1.00;;;0.57;;
9398;SDS011;4739;49.334;8.792;2022-09-16T18:41:30;0.93;;;0.93;;
9398;SDS011;4739;49.334;8.792;2022-09-16T18:43:58;1.60;;;1.50;;